createdAt,value
2023-02-14T00:01:50.531Z,2.44
2023-02-14T00:06:54.659Z,2.50
2023-02-14T00:11:58.865Z,2.54
2023-02-14T00:17:03.023Z,2.47
2023-02-14T00:27:11.297Z,2.48
2023-02-14T00:32:15.620Z,2.60
2023-02-14T00:37:17.762Z,2.49
2023-02-14T00:42:29.008Z,2.41
2023-02-14T00:47:40.139Z,2.31
2023-02-14T00:52:51.264Z,2.33
2023-02-14T00:58:02.456Z,2.30
2023-02-14T01:03:13.622Z,2.32
2023-02-14T01:08:24.786Z,2.35
2023-02-14T01:13:34.101Z,2.29
2023-02-14T01:18:38.213Z,2.07
2023-02-14T01:23:42.396Z,1.95
2023-02-14T01:28:46.561Z,1.96
2023-02-14T01:33:50.710Z,2.06
2023-02-14T01:38:54.891Z,2.06
2023-02-14T01:43:59.050Z,2.06
2023-02-14T01:49:03.254Z,2.04
2023-02-14T01:54:07.378Z,2.02
2023-02-14T01:59:11.590Z,2.09
2023-02-14T02:04:15.710Z,2.05
2023-02-14T02:09:19.901Z,1.91
2023-02-14T02:14:24.087Z,1.76
2023-02-14T02:19:28.216Z,1.85
2023-02-14T02:24:32.423Z,1.79
2023-02-14T02:29:36.558Z,1.69
2023-02-14T02:34:40.708Z,1.56
2023-02-14T02:39:44.907Z,1.44
2023-02-14T02:44:49.059Z,1.58
2023-02-14T02:49:53.242Z,1.67
2023-02-14T02:54:57.369Z,1.68
2023-02-14T02:59:59.637Z,1.73
2023-02-14T03:05:03.832Z,1.72
2023-02-14T03:10:06.117Z,1.78
2023-02-14T03:15:10.270Z,1.72
2023-02-14T03:20:14.448Z,1.68
2023-02-14T03:25:18.583Z,1.55
2023-02-14T03:30:22.807Z,1.45
2023-02-14T03:35:26.945Z,1.48
2023-02-14T03:40:31.065Z,1.41
2023-02-14T03:45:35.328Z,1.60
2023-02-14T03:50:39.386Z,1.64
2023-02-14T03:55:43.595Z,1.49
2023-02-14T04:00:47.717Z,1.58
2023-02-14T04:05:51.933Z,1.57
2023-02-14T04:10:56.088Z,1.39
2023-02-14T04:16:00.267Z,1.29
2023-02-14T04:21:04.417Z,1.18
2023-02-14T04:26:08.670Z,1.20
2023-02-14T04:31:12.794Z,1.22
2023-02-14T04:36:16.903Z,1.24
2023-02-14T04:41:21.048Z,1.24
2023-02-14T04:46:25.260Z,1.27
2023-02-14T04:51:29.414Z,1.16
2023-02-14T04:56:31.680Z,1.12
2023-02-14T05:01:36.013Z,1.05
2023-02-14T05:06:40.013Z,1.01
2023-02-14T05:11:44.185Z,0.98
2023-02-14T05:16:48.420Z,0.90
2023-02-14T05:21:52.709Z,0.80
2023-02-14T05:26:56.648Z,0.72
2023-02-14T05:32:00.983Z,0.73
2023-02-14T05:37:04.985Z,0.67
2023-02-14T05:42:09.222Z,0.58
2023-02-14T05:47:13.360Z,0.54
2023-02-14T05:52:17.456Z,0.49
2023-02-14T05:57:21.636Z,0.48
2023-02-14T06:02:25.890Z,0.40
2023-02-14T06:07:29.961Z,0.30
2023-02-14T06:12:34.134Z,0.22
2023-02-14T06:17:38.323Z,0.25
2023-02-14T06:22:42.500Z,0.24
2023-02-14T06:27:48.259Z,0.29
2023-02-14T06:32:50.821Z,0.28
2023-02-14T06:37:55.005Z,0.28
2023-02-14T06:42:57.267Z,0.25
2023-02-14T06:48:01.419Z,0.20
2023-02-14T06:53:03.696Z,0.12
2023-02-14T06:58:07.916Z,0.05
2023-02-14T07:03:10.140Z,0.02
2023-02-14T07:08:14.295Z,-0.04
2023-02-14T07:13:18.474Z,-0.01
2023-02-14T07:18:22.625Z,0.21
2023-02-14T07:23:26.823Z,0.26
2023-02-14T07:28:31.002Z,0.27
2023-02-14T07:33:35.148Z,0.32
2023-02-14T07:38:39.301Z,0.28
2023-02-14T07:43:43.455Z,0.39
2023-02-14T07:48:47.598Z,0.48
2023-02-14T07:53:51.805Z,0.62
2023-02-14T07:58:55.963Z,0.75
2023-02-14T08:04:00.150Z,0.83
2023-02-14T08:09:04.291Z,0.94
2023-02-14T08:14:08.491Z,1.02
2023-02-14T08:19:12.641Z,1.07
2023-02-14T08:24:16.797Z,1.18
2023-02-14T08:29:20.957Z,1.34
2023-02-14T08:34:25.251Z,1.60
2023-02-14T08:39:29.284Z,1.71
2023-02-14T08:44:33.460Z,2.08
2023-02-14T08:49:35.698Z,2.04
2023-02-14T08:54:39.947Z,2.14
2023-02-14T08:59:44.052Z,2.36
2023-02-14T09:04:48.199Z,2.42
2023-02-14T09:09:52.387Z,2.52
2023-02-14T09:14:56.522Z,2.72
2023-02-14T09:20:00.758Z,2.88
2023-02-14T09:25:05.145Z,3.35
2023-02-14T09:30:09.142Z,3.88
2023-02-14T09:35:13.191Z,4.36
2023-02-14T09:40:17.353Z,4.76
2023-02-14T09:45:21.527Z,5.13
2023-02-14T09:50:25.715Z,5.52
2023-02-14T09:55:29.891Z,5.60
2023-02-14T10:00:34.055Z,5.88
2023-02-14T10:05:38.197Z,6.53
2023-02-14T10:10:42.346Z,6.75
2023-02-14T10:15:46.497Z,6.73
2023-02-14T10:20:50.684Z,7.00
2023-02-14T10:25:54.866Z,7.28
2023-02-14T10:30:59.376Z,7.47
2023-02-14T10:36:01.299Z,7.80
2023-02-14T10:41:05.418Z,8.15
2023-02-14T10:46:09.680Z,8.64
2023-02-14T10:51:13.789Z,8.86
2023-02-14T10:56:17.941Z,9.05
2023-02-14T11:01:22.175Z,9.29
2023-02-14T11:06:26.258Z,9.68
2023-02-14T11:11:30.418Z,9.93
2023-02-14T11:16:34.679Z,10.19
2023-02-14T11:21:38.730Z,10.37
2023-02-14T11:26:42.938Z,10.57
2023-02-14T11:31:47.193Z,10.68
2023-02-14T11:36:51.188Z,10.88
2023-02-14T11:41:55.367Z,11.05
2023-02-14T11:46:59.520Z,11.20
2023-02-14T11:52:03.710Z,11.33
2023-02-14T11:57:07.857Z,11.52
2023-02-14T12:02:12.006Z,11.52
2023-02-14T12:07:16.210Z,11.56
2023-02-14T12:12:20.348Z,11.68
2023-02-14T12:17:24.503Z,11.80
2023-02-14T12:22:28.413Z,11.95
2023-02-14T12:27:30.935Z,12.01
2023-02-14T12:42:41.536Z,12.58
2023-02-14T12:47:45.718Z,12.83
2023-02-14T12:52:49.862Z,12.92
2023-02-14T12:57:53.986Z,12.92
2023-02-14T13:02:58.194Z,13.09
2023-02-14T13:08:02.335Z,13.23
2023-02-14T13:13:06.677Z,13.28
2023-02-14T13:18:10.684Z,13.41
2023-02-14T13:33:23.103Z,13.89
2023-02-14T13:38:25.538Z,13.96
2023-02-14T13:43:36.556Z,13.98
2023-02-14T13:48:39.307Z,14.00
2023-02-14T13:53:49.979Z,14.04
2023-02-14T13:59:01.164Z,14.18
2023-02-14T14:04:12.356Z,14.14
2023-02-14T14:09:23.523Z,14.13
2023-02-14T14:14:34.657Z,14.27
2023-02-14T14:19:36.964Z,14.30
2023-02-14T14:24:39.214Z,14.27
2023-02-14T14:29:43.367Z,14.23
2023-02-14T14:34:45.632Z,14.14
2023-02-14T14:39:49.785Z,14.14
2023-02-14T14:44:52.074Z,14.27
2023-02-14T14:49:56.237Z,14.30
2023-02-14T14:55:00.423Z,14.26
2023-02-14T15:00:04.566Z,14.16
2023-02-14T15:05:08.736Z,14.22
2023-02-14T15:10:12.869Z,14.23
2023-02-14T15:15:17.012Z,14.28
2023-02-14T15:20:21.216Z,14.23
2023-02-14T15:25:25.360Z,14.12
2023-02-14T15:30:29.776Z,14.27
2023-02-14T15:35:33.676Z,14.75
2023-02-14T15:40:37.834Z,15.08
2023-02-14T15:45:42.031Z,15.55
2023-02-14T15:50:46.210Z,15.12
2023-02-14T15:55:50.372Z,14.82
2023-02-14T16:00:54.473Z,14.74
2023-02-14T16:05:58.650Z,13.71
2023-02-14T16:11:02.998Z,13.00
2023-02-14T16:16:07.033Z,12.56
2023-02-14T16:21:11.094Z,11.99
2023-02-14T16:31:19.601Z,10.93
2023-02-14T16:36:21.708Z,10.56
2023-02-14T16:41:25.883Z,10.19
2023-02-14T16:46:28.168Z,9.92
2023-02-14T16:51:32.327Z,9.67
2023-02-14T16:56:36.638Z,9.47
2023-02-14T17:01:40.656Z,9.22
2023-02-14T17:06:44.771Z,9.02
2023-02-14T17:11:48.914Z,8.62
2023-02-14T17:16:53.233Z,8.31
2023-02-14T17:21:57.263Z,8.05
2023-02-14T17:27:01.459Z,7.89
2023-02-14T17:32:05.754Z,7.73
2023-02-14T17:37:09.781Z,7.39
2023-02-14T17:42:13.896Z,7.21
2023-02-14T17:47:18.088Z,7.00
2023-02-14T17:52:22.213Z,6.81
2023-02-14T17:57:26.439Z,6.64
2023-02-14T18:02:30.635Z,6.47
2023-02-14T18:07:34.720Z,6.21
2023-02-14T18:12:38.885Z,6.06
2023-02-14T18:17:43.073Z,5.94
2023-02-14T18:22:47.228Z,5.82
2023-02-14T18:27:51.344Z,5.77
2023-02-14T18:32:53.629Z,5.72
2023-02-14T18:37:57.814Z,5.67
2023-02-14T18:43:01.970Z,5.59
2023-02-14T18:48:06.145Z,5.62
2023-02-14T18:53:08.415Z,5.53
2023-02-14T18:58:12.569Z,5.36
2023-02-14T19:03:16.709Z,5.18
2023-02-14T19:08:20.928Z,5.08
2023-02-14T19:13:25.058Z,4.92
2023-02-14T19:18:29.263Z,4.72
2023-02-14T19:23:33.406Z,4.65
2023-02-14T19:28:37.575Z,4.49
2023-02-14T19:33:41.729Z,4.43
2023-02-14T19:38:45.901Z,4.34
2023-02-14T19:43:50.042Z,4.39
2023-02-14T19:48:54.244Z,4.38
2023-02-14T19:53:58.394Z,4.44
2023-02-14T19:59:02.509Z,4.44
2023-02-14T20:04:06.717Z,4.51
2023-02-14T20:09:10.879Z,4.86
2023-02-14T20:14:15.021Z,4.75
2023-02-14T20:19:19.175Z,4.55
2023-02-14T20:24:23.329Z,4.47
2023-02-14T20:29:27.524Z,4.38
2023-02-14T20:34:31.670Z,4.12
2023-02-14T20:39:33.956Z,3.92
2023-02-14T20:44:38.101Z,3.67
2023-02-14T20:49:42.318Z,3.49
2023-02-14T20:54:46.477Z,3.39
2023-02-14T20:59:50.605Z,3.27
2023-02-14T21:04:54.756Z,3.20
2023-02-14T21:09:58.950Z,3.09
2023-02-14T21:15:03.130Z,2.98
2023-02-14T21:20:07.286Z,2.94
2023-02-14T21:25:11.416Z,2.94
2023-02-14T21:30:15.666Z,2.91
2023-02-14T21:35:19.780Z,2.79
2023-02-14T21:40:24.733Z,2.66
2023-02-14T21:45:28.105Z,2.75
2023-02-14T21:50:32.256Z,2.81
2023-02-14T21:55:36.411Z,2.73
2023-02-14T22:00:40.602Z,2.80
2023-02-14T22:05:44.777Z,2.89
2023-02-14T22:10:48.950Z,2.96
2023-02-14T22:15:53.147Z,2.99
2023-02-14T22:20:57.233Z,3.00
2023-02-14T22:25:59.518Z,2.99
2023-02-14T22:31:04.104Z,2.98
2023-02-14T22:36:05.948Z,2.93
2023-02-14T22:41:10.298Z,2.79
2023-02-14T22:46:14.340Z,2.58
2023-02-14T22:51:18.529Z,2.55
2023-02-14T22:56:20.724Z,2.39
2023-02-14T23:01:24.966Z,2.31
2023-02-14T23:06:29.045Z,2.12
2023-02-14T23:11:33.211Z,2.01
2023-02-14T23:16:37.370Z,1.99
2023-02-14T23:21:41.524Z,1.76
2023-02-14T23:26:45.731Z,1.64
2023-02-14T23:31:49.967Z,1.67
2023-02-14T23:36:54.049Z,1.66
2023-02-14T23:41:58.196Z,1.96
2023-02-14T23:47:02.370Z,2.04
2023-02-14T23:52:06.540Z,2.02
2023-02-14T23:57:10.739Z,2.29
